Somerville, New Jersey
Current Conditions -  °F | °C
As of 2:53 PM on Friday 28 Nov 2014 (Local Time) from KSMQ Reporting Station
Clear Clear  
Wind Chill: 24°   Ceiling: Unl
Heat Index: 34°   Visibility: 10mi
Dew Point: 15°   Wind: 15mph
Humidity: 46%   Direction: 310°NW
Pressure: 30.18"   Gusts: 24mph
Location:  40.57°N, 74.62°W
Report Text: KSMQ 281953Z AUTO 31013G21KT 10SM CLR 01/M09 A3018 RMK AO2 SLP222 T00111094
Loading
Personal Weather Stations






























Interactive Weather Map New forecast layout! Learn more

10-Day Weather Forecast

Advertisements
Track Severe Weather on mobile